Time;durP1;ratioP1;P1;durP2;ratioP2;P2;SDS_P1;SDS_P2;PMS_P1;PMS_P2;Temp;Humidity;BMP_temperature;BMP_pressure;BME280_temperature;BME280_humidity;BME280_pressure;Samples;Min_cycle;Max_cycle;Signal;HPM_P1;HPM_P2
2024/01/01 00:00:57;;;;;;;151.40;106.50;;;;;;;2.14;100.00;98032.05;109464;1253;65148;-75
2024/01/01 00:03:44;;;;;;;164.70;110.90;;;;;;;2.15;100.00;98030.10;109425;1253;59045;-75
2024/01/01 00:06:11;;;;;;;166.50;112.80;;;;;;;2.15;100.00;98030.77;109439;1253;59064;-74
2024/01/01 00:08:37;;;;;;;188.20;124.30;;;;;;;2.16;100.00;98032.13;109411;1253;66063;-75
2024/01/01 00:11:04;;;;;;;194.60;130.50;;;;;;;2.17;100.00;98032.23;109443;1253;60174;-75
2024/01/01 00:13:31;;;;;;;192.40;127.30;;;;;;;2.20;100.00;98028.45;109413;1253;65462;-75
2024/01/01 00:15:57;;;;;;;190.50;122.50;;;;;;;2.23;100.00;98023.58;109199;1253;59384;-75
2024/01/01 00:18:24;;;;;;;179.20;118.50;;;;;;;2.27;100.00;98025.85;109429;1253;58920;-75
2024/01/01 00:20:50;;;;;;;179.10;119.40;;;;;;;2.30;100.00;98023.78;109456;1253;66706;-75
2024/01/01 00:23:17;;;;;;;182.80;120.30;;;;;;;2.31;100.00;98020.38;109414;1253;61399;-75
2024/01/01 00:25:43;;;;;;;198.30;128.20;;;;;;;2.32;100.00;98019.63;108656;1253;1002400;-75
2024/01/01 00:28:10;;;;;;;182.90;131.10;;;;;;;2.33;100.00;98020.10;109390;1253;59027;-75
2024/01/01 00:30:38;;;;;;;180.30;126.20;;;;;;;2.32;100.00;98025.73;109175;1253;59078;-74
2024/01/01 00:33:04;;;;;;;195.20;131.90;;;;;;;2.31;100.00;98029.10;109387;1253;67082;-74
2024/01/01 00:35:31;;;;;;;187.90;130.60;;;;;;;2.31;100.00;98032.79;109396;1253;59760;-75
2024/01/01 00:37:57;;;;;;;184.00;122.50;;;;;;;2.32;100.00;98036.11;109434;1253;62430;-75
2024/01/01 00:40:25;;;;;;;183.70;121.30;;;;;;;2.32;100.00;98037.33;109189;1253;59137;-75
2024/01/01 00:42:52;;;;;;;181.70;120.20;;;;;;;2.33;100.00;98034.10;109400;1253;58981;-76
2024/01/01 00:45:18;;;;;;;168.40;118.70;;;;;;;2.36;100.00;98033.10;109431;1253;65961;-75
2024/01/01 00:47:45;;;;;;;167.60;116.40;;;;;;;2.37;100.00;98034.08;109198;1259;60240;-75
2024/01/01 00:50:12;;;;;;;171.50;118.70;;;;;;;2.36;100.00;98039.02;109403;1253;64839;-75
2024/01/01 00:52:39;;;;;;;174.50;118.30;;;;;;;2.35;100.00;98040.31;109393;1253;58936;-75
2024/01/01 00:55:06;;;;;;;165.80;114.90;;;;;;;2.34;100.00;98032.85;109437;1253;59107;-73
2024/01/01 00:57:33;;;;;;;168.20;115.50;;;;;;;2.30;100.00;98033.04;109251;1253;67011;-74
2024/01/01 00:59:59;;;;;;;171.70;114.70;;;;;;;2.25;100.00;98026.27;109458;1253;59334;-74
2024/01/01 01:02:26;;;;;;;155.60;110.90;;;;;;;2.18;100.00;98018.73;109417;1252;64864;-75
2024/01/01 01:04:52;;;;;;;167.20;110.50;;;;;;;2.11;100.00;98012.56;109411;1253;58993;-75
2024/01/01 01:07:19;;;;;;;171.00;113.20;;;;;;;2.06;100.00;98009.30;109383;1257;58998;-75
2024/01/01 01:09:46;;;;;;;157.40;104.40;;;;;;;2.03;100.00;98007.54;109445;1253;66972;-75
2024/01/01 01:12:13;;;;;;;158.80;105.70;;;;;;;2.03;100.00;98004.22;109475;1253;59628;-75
2024/01/01 01:14:40;;;;;;;162.10;107.80;;;;;;;2.06;100.00;98006.33;109148;1253;65525;-75
2024/01/01 01:17:08;;;;;;;160.60;107.50;;;;;;;2.07;100.00;98009.98;109395;1256;59047;-75
2024/01/01 01:19:37;;;;;;;170.30;111.50;;;;;;;2.05;100.00;98010.93;109438;1253;58852;-75
2024/01/01 01:22:04;;;;;;;164.20;111.10;;;;;;;2.02;100.00;98005.86;109439;1253;66054;-75
2024/01/01 01:24:30;;;;;;;160.40;107.30;;;;;;;1.98;100.00;98003.74;107129;1253;1002979;-75
2024/01/01 01:26:57;;;;;;;161.80;108.00;;;;;;;1.97;100.00;98005.38;109436;1253;59017;-74
2024/01/01 01:29:24;;;;;;;170.80;108.60;;;;;;;1.96;100.00;98007.84;109438;1253;59096;-74
2024/01/01 01:31:51;;;;;;;162.60;106.20;;;;;;;1.99;100.00;98008.95;109397;1253;58988;-75
2024/01/01 01:34:18;;;;;;;160.20;106.20;;;;;;;2.00;100.00;98009.42;109197;1253;64784;-74
2024/01/01 01:36:45;;;;;;;164.00;107.30;;;;;;;2.02;100.00;98001.83;109458;1253;61130;-74
2024/01/01 01:39:11;;;;;;;158.50;104.50;;;;;;;2.03;100.00;98002.28;109444;1253;63876;-74
2024/01/01 01:41:38;;;;;;;156.40;102.10;;;;;;;2.05;100.00;98005.70;109412;1253;59036;-75
2024/01/01 01:44:05;;;;;;;158.40;105.40;;;;;;;2.05;100.00;98019.53;109431;1253;59100;-75
2024/01/01 01:46:32;;;;;;;160.10;106.30;;;;;;;2.06;100.00;98023.86;109466;1252;67316;-73
2024/01/01 01:49:01;;;;;;;157.80;106.30;;;;;;;2.07;100.00;98021.52;109432;1252;61041;-74
2024/01/01 01:51:28;;;;;;;170.10;105.20;;;;;;;2.07;100.00;98019.06;109412;1254;65058;-74
2024/01/01 01:53:56;;;;;;;162.70;105.10;;;;;;;2.08;100.00;98020.25;109445;1252;59283;-75
2024/01/01 01:56:23;;;;;;;186.30;118.10;;;;;;;2.10;100.00;98027.36;109513;1254;59651;-75
2024/01/01 01:58:50;;;;;;;173.20;113.90;;;;;;;2.10;100.00;98034.69;109469;1253;65953;-75
2024/01/01 02:01:16;;;;;;;191.50;117.50;;;;;;;2.09;100.00;98040.70;109447;1252;61260;-75
2024/01/01 02:03:44;;;;;;;224.30;140.70;;;;;;;2.07;100.00;98051.85;109479;1254;65178;-74
2024/01/01 02:06:11;;;;;;;243.00;149.40;;;;;;;2.06;100.00;98062.23;109418;1253;58966;-75
2024/01/01 02:08:38;;;;;;;222.70;135.80;;;;;;;2.04;100.00;98063.73;109459;1254;59106;-75
2024/01/01 02:11:04;;;;;;;206.40;126.80;;;;;;;2.00;100.00;98061.45;109434;1253;67643;-75
2024/01/01 02:13:31;;;;;;;203.00;122.40;;;;;;;2.00;100.00;98066.73;109493;1252;60205;-74
2024/01/01 02:15:58;;;;;;;201.40;123.20;;;;;;;1.99;100.00;98067.98;109443;1252;65013;-74
2024/01/01 02:18:25;;;;;;;190.70;119.50;;;;;;;1.97;100.00;98071.42;109450;1254;59037;-75
2024/01/01 02:20:52;;;;;;;208.70;131.90;;;;;;;1.95;100.00;98070.97;109459;1253;59046;-74
2024/01/01 02:23:18;;;;;;;210.70;134.70;;;;;;;1.95;100.00;98068.51;109269;1252;66205;-74
2024/01/01 02:25:45;;;;;;;203.30;129.90;;;;;;;1.95;100.00;98067.98;109493;1254;61218;-75
2024/01/01 02:28:13;;;;;;;196.90;133.20;;;;;;;1.94;100.00;98062.95;109461;1254;64827;-75
2024/01/01 02:30:40;;;;;;;195.50;123.70;;;;;;;1.94;100.00;98056.98;109395;1255;59001;-75
2024/01/01 02:33:09;;;;;;;204.70;130.90;;;;;;;1.92;100.00;98058.15;109481;1253;58985;-75
2024/01/01 02:35:36;;;;;;;191.80;121.80;;;;;;;1.88;100.00;98051.15;109463;1252;67169;-74
2024/01/01 02:38:04;;;;;;;194.30;127.70;;;;;;;1.84;100.00;98045.94;109436;1252;60046;-75
2024/01/01 02:40:32;;;;;;;199.70;124.50;;;;;;;1.83;100.00;98037.95;109506;1254;64709;-75
2024/01/01 02:43:02;;;;;;;191.80;125.30;;;;;;;1.82;100.00;98036.03;109241;1253;59003;-75
2024/01/01 02:45:30;;;;;;;201.90;129.40;;;;;;;1.81;100.00;98033.10;109415;1253;58993;-75
2024/01/01 02:47:57;;;;;;;193.50;126.60;;;;;;;1.81;100.00;98032.27;109465;1252;67050;-74
2024/01/01 02:50:25;;;;;;;196.70;130.90;;;;;;;1.78;100.00;98029.93;109479;1253;61597;-73
2024/01/01 02:52:52;;;;;;;189.30;125.60;;;;;;;1.74;100.00;98034.10;109438;1253;72517;-74
2024/01/01 02:55:18;;;;;;;184.50;117.90;;;;;;;1.72;100.00;98038.41;109433;1253;59016;-74
2024/01/01 02:57:45;;;;;;;189.50;122.90;;;;;;;1.66;100.00;98040.62;109312;1253;59069;-75
2024/01/01 03:00:33;;;;;;;187.00;118.90;;;;;;;1.62;100.00;98035.91;109467;1252;65990;-74
2024/01/01 03:03:00;;;;;;;180.20;113.00;;;;;;;1.61;100.00;98038.45;109483;1254;60079;-74
2024/01/01 03:05:27;;;;;;;181.10;114.90;;;;;;;1.61;100.00;98041.04;109459;1254;64895;-75
2024/01/01 03:07:53;;;;;;;181.80;119.10;;;;;;;1.65;100.00;98042.96;109409;1252;59071;-74
2024/01/01 03:10:20;;;;;;;184.50;117.80;;;;;;;1.69;100.00;98043.45;109492;1253;58869;-74
2024/01/01 03:12:46;;;;;;;175.90;115.90;;;;;;;1.74;100.00;98036.90;109483;1252;67049;-74
2024/01/01 03:15:13;;;;;;;173.30;112.00;;;;;;;1.80;100.00;98029.30;109453;1255;61133;-74
2024/01/01 03:17:41;;;;;;;174.10;112.50;;;;;;;1.84;100.00;98025.62;109457;1254;64022;-74
2024/01/01 03:20:09;;;;;;;167.70;111.30;;;;;;;1.88;100.00;98023.51;109440;1255;59002;-74
2024/01/01 03:22:36;;;;;;;166.30;111.50;;;;;;;1.91;100.00;98017.23;109477;1253;59227;-74
2024/01/01 03:25:03;;;;;;;153.70;105.60;;;;;;;1.92;100.00;98018.55;109440;1253;66973;-74
2024/01/01 03:27:30;;;;;;;150.20;101.70;;;;;;;1.94;100.00;98014.27;109467;1254;61036;-74
2024/01/01 03:29:57;;;;;;;169.10;111.20;;;;;;;1.94;100.00;98007.59;109525;1252;65169;-74
2024/01/01 03:32:24;;;;;;;172.40;113.10;;;;;;;1.98;100.00;98003.23;109410;1253;59032;-74
2024/01/01 03:34:50;;;;;;;165.40;108.20;;;;;;;2.02;100.00;98002.33;109435;1254;59496;-74
2024/01/01 03:37:17;;;;;;;160.40;104.70;;;;;;;2.07;100.00;98005.74;109500;1252;67046;-74
2024/01/01 03:39:43;;;;;;;157.20;107.40;;;;;;;2.11;100.00;98004.86;109455;1254;60184;-75
2024/01/01 03:42:10;;;;;;;158.10;109.10;;;;;;;2.15;100.00;97995.91;109233;1253;65336;-74
2024/01/01 03:44:37;;;;;;;159.80;105.60;;;;;;;2.19;100.00;97994.48;109364;1252;58948;-74
2024/01/01 03:47:03;;;;;;;155.90;100.40;;;;;;;2.23;100.00;97996.55;107956;1253;1002635;-74
2024/01/01 03:49:30;;;;;;;159.10;103.40;;;;;;;2.28;100.00;97997.05;109414;1252;66215;-74
2024/01/01 03:51:56;;;;;;;152.50;102.40;;;;;;;2.30;100.00;97996.43;109459;1253;61157;-74
2024/01/01 03:54:23;;;;;;;156.40;100.90;;;;;;;2.30;100.00;97998.67;109432;1253;63989;-75
2024/01/01 03:56:49;;;;;;;158.70;103.70;;;;;;;2.31;100.00;97995.83;109424;1254;58895;-75
2024/01/01 03:59:16;;;;;;;160.20;108.30;;;;;;;2.33;100.00;97994.14;109445;1253;58839;-75
2024/01/01 04:01:43;;;;;;;160.40;109.90;;;;;;;2.36;100.00;97995.20;109202;1254;66135;-76
2024/01/01 04:04:09;;;;;;;175.30;113.00;;;;;;;2.39;100.00;97987.89;109461;1254;60239;-74
2024/01/01 04:06:36;;;;;;;189.80;121.60;;;;;;;2.41;100.00;97990.25;109459;1252;65027;-76
2024/01/01 04:09:02;;;;;;;206.10;133.60;;;;;;;2.45;100.00;97990.42;109429;1254;58960;-76
2024/01/01 04:11:29;;;;;;;198.10;129.40;;;;;;;2.48;100.00;97984.44;109342;1252;59171;-74
2024/01/01 04:13:56;;;;;;;209.60;133.40;;;;;;;2.53;100.00;97978.44;109439;1253;67066;-75
2024/01/01 04:16:22;;;;;;;201.10;129.60;;;;;;;2.58;100.00;97984.14;109466;1253;60844;-76
2024/01/01 04:18:50;;;;;;;194.40;124.30;;;;;;;2.62;100.00;97984.46;109448;1253;65131;-75
2024/01/01 04:21:16;;;;;;;199.50;128.30;;;;;;;2.65;100.00;97979.41;109420;1253;59290;-75
2024/01/01 04:23:43;;;;;;;186.60;124.20;;;;;;;2.68;100.00;97980.84;109455;1252;59032;-75
2024/01/01 04:26:09;;;;;;;186.50;126.60;;;;;;;2.70;100.00;97974.55;109436;1253;66013;-75
2024/01/01 04:28:36;;;;;;;197.70;126.10;;;;;;;2.73;100.00;97969.33;109454;1254;60119;-75
2024/01/01 04:31:03;;;;;;;203.90;131.40;;;;;;;2.75;100.00;97967.82;109405;1253;65265;-75
2024/01/01 04:33:30;;;;;;;206.20;129.70;;;;;;;2.77;100.00;97965.96;109435;1253;59014;-75
2024/01/01 04:35:57;;;;;;;195.70;127.80;;;;;;;2.79;100.00;97968.48;109453;1253;58976;-74
2024/01/01 04:38:23;;;;;;;198.30;128.30;;;;;;;2.82;100.00;97971.16;109490;1254;65943;-74
2024/01/01 04:40:50;;;;;;;186.90;123.10;;;;;;;2.83;100.00;97965.98;109293;1254;60111;-74
2024/01/01 04:43:17;;;;;;;176.40;122.00;;;;;;;2.84;100.00;97961.04;109422;1253;65019;-73
2024/01/01 04:45:43;;;;;;;183.20;120.60;;;;;;;2.83;100.00;97955.27;109421;1253;59042;-74
2024/01/01 04:48:10;;;;;;;202.10;131.30;;;;;;;2.83;100.00;97948.47;109457;1254;58988;-75
2024/01/01 04:50:37;;;;;;;226.00;137.30;;;;;;;2.84;100.00;97941.73;109446;1253;67007;-74
2024/01/01 04:53:03;;;;;;;210.00;135.20;;;;;;;2.87;100.00;97934.96;109450;1253;60094;-75
2024/01/01 04:55:30;;;;;;;202.10;128.60;;;;;;;2.90;100.00;97933.38;109456;1254;65031;-74
2024/01/01 04:57:57;;;;;;;184.70;118.60;;;;;;;2.92;100.00;97935.17;108683;1253;1002396;-75
2024/01/01 05:00:23;;;;;;;195.60;125.10;;;;;;;2.94;100.00;97932.13;109452;1253;58910;-75
2024/01/01 05:02:50;;;;;;;193.60;124.20;;;;;;;2.95;100.00;97930.84;109454;1253;65971;-75
2024/01/01 05:05:16;;;;;;;185.90;120.80;;;;;;;2.95;100.00;97926.09;109459;1253;60057;-75
2024/01/01 05:07:44;;;;;;;184.50;120.20;;;;;;;2.96;100.00;97921.63;109418;1253;64878;-75
2024/01/01 05:10:11;;;;;;;192.90;125.90;;;;;;;2.97;100.00;97918.42;109439;1254;59016;-75
2024/01/01 05:12:38;;;;;;;178.70;121.00;;;;;;;2.97;100.00;97915.13;109422;1253;58919;-75
2024/01/01 05:15:06;;;;;;;179.60;118.40;;;;;;;2.97;100.00;97914.23;109453;1253;67071;-76
2024/01/01 05:17:32;;;;;;;165.40;110.70;;;;;;;2.97;100.00;97919.33;109453;1252;61104;-74
2024/01/01 05:19:59;;;;;;;172.70;114.60;;;;;;;2.94;100.00;97924.55;109477;1253;64203;-75
2024/01/01 05:22:25;;;;;;;164.10;111.60;;;;;;;2.93;100.00;97929.19;109417;1254;58978;-75
2024/01/01 05:24:52;;;;;;;173.40;114.00;;;;;;;2.91;100.00;97930.36;109448;1254;59190;-76
2024/01/01 05:27:18;;;;;;;166.80;114.50;;;;;;;2.91;100.00;97928.97;109462;1252;67226;-74
2024/01/01 05:29:45;;;;;;;183.40;120.50;;;;;;;2.91;100.00;97923.52;109468;1253;60025;-75
2024/01/01 05:32:12;;;;;;;190.50;126.40;;;;;;;2.91;100.00;97926.80;109446;1252;65026;-75
2024/01/01 05:34:40;;;;;;;185.60;123.00;;;;;;;2.94;100.00;97925.79;109460;1254;59093;-75
2024/01/01 05:37:07;;;;;;;187.70;126.40;;;;;;;2.96;100.00;97929.17;109424;1254;58882;-74
2024/01/01 05:39:34;;;;;;;190.00;124.50;;;;;;;2.97;100.00;97926.98;109440;1252;64998;-75
2024/01/01 05:42:01;;;;;;;198.00;123.40;;;;;;;2.99;100.00;97917.98;109456;1253;61330;-75
2024/01/01 05:44:28;;;;;;;188.20;125.50;;;;;;;3.01;100.00;97916.11;109460;1253;65555;-75
2024/01/01 05:46:55;;;;;;;202.90;133.50;;;;;;;3.03;100.00;97916.89;109464;1253;58995;-75
2024/01/01 05:49:23;;;;;;;196.00;130.10;;;;;;;3.06;100.00;97917.41;109446;1253;59063;-74
2024/01/01 05:51:50;;;;;;;193.20;129.90;;;;;;;3.09;100.00;97924.83;109451;1252;66068;-76
2024/01/01 05:54:16;;;;;;;201.70;128.60;;;;;;;3.11;100.00;97937.19;109479;1253;60061;-75
2024/01/01 05:56:44;;;;;;;183.00;119.30;;;;;;;3.12;100.00;97944.84;109431;1253;65216;-74
2024/01/01 05:59:10;;;;;;;173.00;111.40;;;;;;;3.13;100.00;97951.45;109435;1252;59654;-74
2024/01/01 06:01:37;;;;;;;178.10;121.80;;;;;;;3.13;100.00;97959.88;109454;1253;59039;-75
2024/01/01 06:04:04;;;;;;;185.60;121.80;;;;;;;3.15;100.00;97968.91;109428;1252;67025;-75
2024/01/01 06:06:30;;;;;;;169.00;112.00;;;;;;;3.20;100.00;97976.70;109482;1253;61226;-74
2024/01/01 06:08:57;;;;;;;171.10;112.90;;;;;;;3.27;100.00;97978.41;109464;1253;64999;-74
2024/01/01 06:11:24;;;;;;;165.80;109.10;;;;;;;3.36;100.00;97979.36;109471;1252;58893;-75
2024/01/01 06:13:50;;;;;;;168.60;109.40;;;;;;;3.44;100.00;97976.42;109491;1253;58998;-74
2024/01/01 06:16:17;;;;;;;151.30;99.70;;;;;;;3.52;100.00;97979.02;109469;1253;67310;-75
2024/01/01 06:18:44;;;;;;;147.70;93.80;;;;;;;3.58;100.00;97978.52;109479;1253;61059;-75
2024/01/01 06:21:10;;;;;;;144.20;91.80;;;;;;;3.66;100.00;97975.95;109462;1253;65076;-74
2024/01/01 06:23:38;;;;;;;135.30;91.30;;;;;;;3.73;100.00;97973.30;109456;1252;59161;-74
2024/01/01 06:26:05;;;;;;;140.50;86.70;;;;;;;3.78;100.00;97967.04;109336;1253;59001;-74
2024/01/01 06:28:31;;;;;;;115.70;78.20;;;;;;;3.83;100.00;97967.98;109473;1253;66968;-74
2024/01/01 06:30:58;;;;;;;120.50;79.00;;;;;;;3.88;100.00;97972.62;109456;1253;61207;-74
2024/01/01 06:33:24;;;;;;;115.00;74.50;;;;;;;3.92;100.00;97974.33;109268;1254;64693;-74
2024/01/01 06:35:51;;;;;;;102.90;67.70;;;;;;;3.95;100.00;97971.70;109440;1252;58978;-74
2024/01/01 06:38:18;;;;;;;102.60;65.50;;;;;;;3.98;100.00;97977.49;109464;1253;59818;-74
2024/01/01 06:40:44;;;;;;;110.20;69.10;;;;;;;4.00;100.00;97983.20;109467;1253;67308;-75
2024/01/01 06:43:11;;;;;;;96.70;59.90;;;;;;;4.02;100.00;97984.48;109461;1252;60199;-74
2024/01/01 06:45:38;;;;;;;92.70;61.30;;;;;;;4.04;100.00;97982.47;109430;1252;65045;-76
2024/01/01 06:48:04;;;;;;;88.60;56.80;;;;;;;4.05;100.00;97980.09;109437;1253;58894;-75
2024/01/01 06:50:31;;;;;;;88.00;58.20;;;;;;;4.06;100.00;97974.77;109478;1252;58962;-75
2024/01/01 06:52:58;;;;;;;84.70;56.00;;;;;;;4.07;100.00;97974.52;109481;1253;66969;-75
2024/01/01 06:55:24;;;;;;;85.00;55.00;;;;;;;4.09;100.00;97975.46;109477;1253;60155;-75
2024/01/01 06:57:52;;;;;;;77.60;52.80;;;;;;;4.11;100.00;97975.36;109445;1253;65196;-75
2024/01/01 07:00:20;;;;;;;72.30;49.00;;;;;;;4.12;100.00;97978.11;109340;1254;59528;-76
2024/01/01 07:02:46;;;;;;;73.40;48.80;;;;;;;4.13;100.00;97982.09;109506;1253;59063;-75
2024/01/01 07:05:13;;;;;;;74.40;47.90;;;;;;;4.14;100.00;97988.38;109454;1253;67039;-76
2024/01/01 07:07:40;;;;;;;65.70;44.20;;;;;;;4.14;100.00;97992.03;109487;1252;61181;-75
2024/01/01 07:10:06;;;;;;;59.30;40.50;;;;;;;4.15;100.00;97996.73;109463;1253;64195;-75
2024/01/01 07:12:33;;;;;;;60.20;39.10;;;;;;;4.16;100.00;97996.32;109454;1253;59008;-74
2024/01/01 07:15:01;;;;;;;54.30;37.50;;;;;;;4.17;100.00;98000.69;109529;1253;59131;-75
2024/01/01 07:17:27;;;;;;;51.30;35.10;;;;;;;4.18;100.00;98003.44;109432;1252;65750;-75
2024/01/01 07:19:54;;;;;;;53.00;35.60;;;;;;;4.18;100.00;98003.75;109455;1252;60133;-75
2024/01/01 07:22:20;;;;;;;44.60;30.60;;;;;;;4.20;100.00;98003.33;109437;1253;65114;-75
2024/01/01 07:24:47;;;;;;;36.90;29.00;;;;;;;4.21;100.00;98004.84;109436;1253;59014;-75
2024/01/01 07:27:13;;;;;;;44.40;30.70;;;;;;;4.22;100.00;98013.77;109461;1253;59319;-75
2024/01/01 07:29:40;;;;;;;45.30;31.60;;;;;;;4.22;100.00;98017.82;109464;1252;67043;-75
2024/01/01 07:32:07;;;;;;;48.20;32.40;;;;;;;4.23;100.00;98019.30;109454;1253;60615;-75
2024/01/01 07:34:34;;;;;;;48.20;32.20;;;;;;;4.24;100.00;98020.86;109443;1253;65121;-74
2024/01/01 07:37:00;;;;;;;42.40;31.30;;;;;;;4.24;100.00;98023.34;109478;1252;59123;-74
2024/01/01 07:39:29;;;;;;;45.80;31.30;;;;;;;4.24;100.00;98022.80;109413;1253;58978;-75
2024/01/01 07:41:56;;;;;;;39.40;28.50;;;;;;;4.24;100.00;98021.55;109445;1252;66007;-74
2024/01/01 07:44:23;;;;;;;43.20;28.00;;;;;;;4.24;100.00;98022.09;109397;1253;61362;-74
2024/01/01 07:46:50;;;;;;;43.20;29.40;;;;;;;4.24;100.00;98025.95;109475;1253;65038;-74
2024/01/01 07:49:16;;;;;;;41.40;27.60;;;;;;;4.22;100.00;98029.38;109484;1253;59264;-74
2024/01/01 07:51:43;;;;;;;38.10;26.50;;;;;;;4.21;100.00;98033.48;109289;1253;59045;-75
2024/01/01 07:54:10;;;;;;;40.30;28.20;;;;;;;4.20;100.00;98034.44;109070;1253;64887;-75
2024/01/01 07:56:43;;;;;;;35.30;25.60;;;;;;;4.19;100.00;98033.77;109509;1252;61030;-75
2024/01/01 07:59:11;;;;;;;33.30;23.20;;;;;;;4.19;100.00;98035.56;109490;1253;64118;-74
2024/01/01 08:01:39;;;;;;;32.60;22.40;;;;;;;4.17;100.00;98031.63;109515;1252;58952;-75
2024/01/01 08:04:06;;;;;;;33.50;23.70;;;;;;;4.15;100.00;98029.40;109506;1253;59371;-75
2024/01/01 08:06:34;;;;;;;32.00;22.70;;;;;;;4.14;100.00;98025.97;109496;1252;66902;-74
2024/01/01 08:09:00;;;;;;;25.20;18.90;;;;;;;4.13;100.00;98028.14;109362;1253;60025;-75
2024/01/01 08:11:27;;;;;;;27.40;17.70;;;;;;;4.11;100.00;98029.88;109467;1253;64738;-75
2024/01/01 08:13:53;;;;;;;24.40;17.30;;;;;;;4.07;100.00;98030.39;109466;1253;59010;-75
2024/01/01 08:16:20;;;;;;;20.10;14.70;;;;;;;4.04;100.00;98032.17;109489;1253;59002;-75
2024/01/01 08:18:48;;;;;;;21.30;14.10;;;;;;;4.00;100.00;98031.85;109470;1253;67090;-75
2024/01/01 08:21:14;;;;;;;21.20;14.20;;;;;;;3.95;100.00;98030.91;109438;1253;60163;-75
2024/01/01 08:23:41;;;;;;;17.80;13.40;;;;;;;3.92;100.00;98031.94;109500;1253;64053;-75
2024/01/01 08:26:07;;;;;;;19.70;14.20;;;;;;;3.91;100.00;98028.86;109465;1253;58989;-75
2024/01/01 08:28:34;;;;;;;21.80;15.20;;;;;;;3.88;100.00;98023.55;109511;1253;59059;-75
2024/01/01 08:31:00;;;;;;;21.10;13.70;;;;;;;3.87;100.00;98027.67;109447;1253;67092;-76
2024/01/01 08:33:27;;;;;;;17.00;10.90;;;;;;;3.85;100.00;98028.83;109306;1252;60743;-75
2024/01/01 08:35:55;;;;;;;11.00;9.10;;;;;;;3.83;100.00;98036.16;109197;1254;62557;-76
2024/01/01 08:38:22;;;;;;;9.70;7.90;;;;;;;3.79;100.00;98037.29;108711;1253;1002196;-75
2024/01/01 08:40:50;;;;;;;11.30;8.20;;;;;;;3.74;100.00;98038.23;109366;1253;59888;-76
2024/01/01 08:43:17;;;;;;;10.30;7.90;;;;;;;3.71;100.00;98042.06;109510;1252;66966;-75
2024/01/01 08:45:43;;;;;;;8.20;7.20;;;;;;;3.68;100.00;98042.42;109478;1252;60995;-75
2024/01/01 08:48:10;;;;;;;8.30;5.90;;;;;;;3.65;100.00;98042.41;109353;1252;64031;-75
2024/01/01 08:50:37;;;;;;;8.50;6.70;;;;;;;3.61;100.00;98050.02;107691;1260;1002586;-75
2024/01/01 08:53:03;;;;;;;7.80;6.90;;;;;;;3.57;100.00;98054.96;109477;1252;58991;-75
2024/01/01 08:55:30;;;;;;;9.20;7.30;;;;;;;3.56;100.00;98057.67;109091;1252;65934;-74
2024/01/01 08:57:57;;;;;;;7.60;6.70;;;;;;;3.54;100.00;98057.42;109457;1253;61041;-74
2024/01/01 09:00:26;;;;;;;10.00;7.60;;;;;;;3.52;100.00;98066.64;108681;1252;1002961;-75
2024/01/01 09:02:52;;;;;;;9.90;7.00;;;;;;;3.50;100.00;98071.30;109461;1252;59258;-75
2024/01/01 09:05:19;;;;;;;6.00;5.30;;;;;;;3.46;100.00;98073.06;109498;1252;59109;-75
2024/01/01 09:07:46;;;;;;;7.60;5.00;;;;;;;3.43;100.00;98082.39;109314;1253;65961;-74
2024/01/01 09:10:12;;;;;;;6.30;4.00;;;;;;;3.39;100.00;98090.48;109472;1253;58980;-75
2024/01/01 09:12:39;;;;;;;6.50;4.60;;;;;;;3.34;100.00;98099.18;109481;1252;64067;-76
2024/01/01 09:15:06;;;;;;;6.40;4.10;;;;;;;3.30;100.00;98102.56;109444;1252;58984;-73
2024/01/01 09:17:33;;;;;;;6.90;3.90;;;;;;;3.24;100.00;98108.11;109290;1253;58980;-74
2024/01/01 09:19:59;;;;;;;7.60;4.20;;;;;;;3.19;100.00;98107.52;109430;1252;66167;-74
2024/01/01 09:22:26;;;;;;;6.90;4.90;;;;;;;3.13;100.00;98107.63;109502;1253;60030;-74
2024/01/01 09:24:53;;;;;;;6.60;4.70;;;;;;;3.09;100.00;98109.92;109456;1252;64997;-74
2024/01/01 09:27:19;;;;;;;6.10;4.60;;;;;;;3.05;100.00;98107.36;109428;1252;59279;-75
2024/01/01 09:29:46;;;;;;;8.40;4.90;;;;;;;3.01;100.00;98111.20;109453;1253;59217;-74
2024/01/01 09:32:12;;;;;;;7.10;5.40;;;;;;;2.98;100.00;98104.71;109495;1252;67034;-75
2024/01/01 09:34:40;;;;;;;9.20;5.60;;;;;;;2.94;100.00;98104.89;109330;1253;59860;-75
2024/01/01 09:37:06;;;;;;;8.40;5.60;;;;;;;2.93;100.00;98100.06;109420;1252;65122;-74
2024/01/01 09:39:33;;;;;;;7.20;5.60;;;;;;;2.92;100.00;98093.77;109435;1252;59025;-73
2024/01/01 09:42:04;;;;;;;6.40;4.70;;;;;;;2.91;100.00;98092.79;109450;1253;59048;-74
2024/01/01 09:44:30;;;;;;;7.10;5.70;;;;;;;2.88;100.00;98092.23;109459;1253;65713;-75
2024/01/01 09:46:57;;;;;;;6.90;4.80;;;;;;;2.86;100.00;98090.36;109509;1252;60030;-74
2024/01/01 09:49:24;;;;;;;5.40;4.20;;;;;;;2.83;100.00;98087.02;109416;1252;65014;-73
2024/01/01 09:51:54;;;;;;;6.00;4.40;;;;;;;2.76;100.00;98091.23;109457;1253;58966;-74
2024/01/01 09:54:20;;;;;;;6.20;4.10;;;;;;;2.69;100.00;98095.45;109466;1252;59012;-73
2024/01/01 09:56:47;;;;;;;5.80;3.90;;;;;;;2.60;100.00;98089.74;109487;1253;65983;-73
2024/01/01 09:59:32;;;;;;;5.80;4.30;;;;;;;2.54;100.00;98082.34;109382;1254;58997;-74
2024/01/01 10:02:07;;;;;;;7.60;5.00;;;;;;;2.47;100.00;98073.23;109441;1253;63967;-74
2024/01/01 10:04:37;;;;;;;7.30;6.10;;;;;;;2.40;100.00;98078.09;109486;1252;59000;-74
2024/01/01 10:07:04;;;;;;;;;;;;;;;2.36;100.00;98077.78;109491;1252;58981;-73
2024/01/01 10:09:32;;;;;;;6.80;6.10;;;;;;;2.32;100.00;98076.21;109475;1252;67455;-73
2024/01/01 10:12:09;;;;;;;7.40;5.90;;;;;;;2.27;100.00;98078.39;109300;1252;61265;-73
2024/01/01 10:14:49;;;;;;;7.60;6.50;;;;;;;2.18;100.00;98083.38;109234;1253;64811;-74
2024/01/01 10:17:17;;;;;;;10.20;8.40;;;;;;;2.09;100.00;98086.23;109420;1252;58966;-74
2024/01/01 10:19:48;;;;;;;11.80;9.40;;;;;;;1.99;100.00;98090.91;109443;1252;58983;-74
2024/01/01 10:22:18;;;;;;;9.50;7.70;;;;;;;1.89;100.00;98092.61;109402;1252;67839;-75
2024/01/01 10:24:49;;;;;;;11.50;9.60;;;;;;;1.81;100.00;98091.45;109525;1252;59058;-73
2024/01/01 10:27:18;;;;;;;12.40;8.70;;;;;;;1.73;100.00;98091.28;109459;1252;64084;-75
2024/01/01 10:29:49;;;;;;;11.20;9.40;;;;;;;1.68;100.00;98086.41;109472;1252;58979;-75
2024/01/01 10:32:17;;;;;;;11.30;9.60;;;;;;;1.63;100.00;98081.91;109448;1252;59026;-74
2024/01/01 10:34:47;;;;;;;8.70;7.80;;;;;;;1.57;100.00;98081.48;109475;1252;67081;-74
2024/01/01 10:37:15;;;;;;;8.90;7.30;;;;;;;1.53;100.00;98083.02;109448;1252;60109;-75
2024/01/01 10:39:43;;;;;;;10.90;7.90;;;;;;;1.48;100.00;98077.86;109464;1252;64768;-75
2024/01/01 10:42:10;;;;;;;8.30;6.40;;;;;;;1.44;100.00;98075.59;109294;1253;59052;-74
2024/01/01 10:44:38;;;;;;;8.80;6.80;;;;;;;1.42;100.00;98075.00;109446;1252;58972;-75
2024/01/01 10:47:11;;;;;;;8.70;7.00;;;;;;;1.41;100.00;98076.80;109400;1252;67192;-75
2024/01/01 10:49:47;;;;;;;10.70;7.80;;;;;;;1.41;100.00;98081.70;109386;1252;61158;-75
2024/01/01 10:52:35;;;;;;;8.60;7.70;;;;;;;1.38;100.00;98082.00;109366;1252;65131;-75
2024/01/01 10:55:17;;;;;;;10.40;9.30;;;;;;;1.36;100.00;98082.28;109396;1252;58980;-73
2024/01/01 10:57:58;;;;;;;12.60;9.70;;;;;;;1.34;100.00;98077.44;109365;1252;59123;-73
2024/01/01 11:00:51;;;;;;;12.70;10.00;;;;;;;1.33;100.00;98075.04;109379;1252;66117;-74
2024/01/01 11:03:18;;;;;;;12.50;10.20;;;;;;;1.33;100.00;98073.65;109381;1252;61115;-74